createdAt,value
2019-03-26T00:03:43.685Z,6.05
2019-03-26T00:08:40.699Z,6.03
2019-03-26T00:13:37.770Z,6.02
2019-03-26T00:18:34.959Z,6.08
2019-03-26T00:23:34.296Z,6.10
2019-03-26T00:28:31.309Z,6.16
2019-03-26T00:33:36.162Z,6.05
2019-03-26T00:38:27.409Z,6.23
2019-03-26T00:43:24.467Z,6.11
2019-03-26T00:48:21.568Z,6.13
2019-03-26T00:53:18.635Z,6.12
2019-03-26T00:58:16.860Z,6.15
2019-03-26T01:03:13.929Z,6.01
2019-03-26T01:08:11.015Z,5.80
2019-03-26T01:13:07.984Z,6.11
2019-03-26T01:18:05.493Z,6.20
2019-03-26T01:23:02.642Z,5.90
2019-03-26T01:27:59.850Z,6.20
2019-03-26T01:32:56.872Z,6.10
2019-03-26T01:37:53.957Z,6.12
2019-03-26T01:42:51.034Z,6.17
2019-03-26T01:47:48.269Z,6.20
2019-03-26T01:52:45.446Z,6.17
2019-03-26T01:57:46.263Z,6.04
2019-03-26T02:02:45.593Z,6.05
2019-03-26T02:07:42.719Z,6.00
2019-03-26T02:12:39.782Z,6.12
2019-03-26T02:17:37.244Z,6.12
2019-03-26T02:22:34.236Z,6.32
2019-03-26T02:27:31.383Z,6.42
2019-03-26T02:32:28.438Z,6.24
2019-03-26T02:37:28.211Z,6.27
2019-03-26T02:42:25.270Z,6.42
2019-03-26T02:47:24.119Z,6.34
2019-03-26T02:52:21.175Z,6.46
2019-03-26T02:57:18.229Z,6.31
2019-03-26T03:02:15.318Z,6.39
2019-03-26T03:07:15.103Z,6.47
2019-03-26T03:12:12.157Z,6.44
2019-03-26T03:17:09.163Z,6.43
2019-03-26T03:22:06.139Z,6.35
2019-03-26T03:27:06.053Z,6.46
2019-03-26T03:32:03.191Z,6.34
2019-03-26T03:37:00.283Z,6.27
2019-03-26T03:41:57.291Z,6.29
2019-03-26T03:46:56.810Z,6.16
2019-03-26T03:51:55.665Z,6.14
2019-03-26T03:56:52.776Z,6.08
2019-03-26T04:01:49.840Z,6.19
2019-03-26T04:06:46.972Z,6.00
2019-03-26T04:11:44.450Z,5.93
2019-03-26T04:16:41.662Z,5.98
2019-03-26T04:21:38.710Z,5.82
2019-03-26T04:26:35.773Z,5.90
2019-03-26T04:31:32.904Z,5.73
2019-03-26T04:36:30.640Z,5.82
2019-03-26T04:41:27.722Z,5.89
2019-03-26T04:46:24.827Z,5.74
2019-03-26T04:51:21.789Z,5.72
2019-03-26T04:56:19.235Z,5.54
2019-03-26T05:01:16.619Z,5.68
2019-03-26T05:06:13.600Z,5.69
2019-03-26T05:11:10.705Z,5.66
2019-03-26T05:16:10.907Z,5.53
2019-03-26T05:21:08.052Z,5.44
2019-03-26T05:26:05.271Z,5.50
2019-03-26T05:31:04.179Z,5.55
2019-03-26T05:36:01.308Z,5.68
2019-03-26T05:40:58.334Z,5.52
2019-03-26T05:45:55.403Z,5.83
2019-03-26T05:50:53.542Z,5.60
2019-03-26T05:55:50.662Z,5.86
2019-03-26T06:00:47.740Z,5.95
2019-03-26T06:05:44.882Z,6.07
2019-03-26T06:10:41.947Z,6.02
2019-03-26T06:15:39.045Z,5.99
2019-03-26T06:20:36.420Z,6.21
2019-03-26T06:25:33.560Z,6.28
2019-03-26T06:30:30.755Z,6.45
2019-03-26T06:35:30.921Z,6.67
2019-03-26T06:40:27.966Z,7.08
2019-03-26T06:45:25.046Z,7.50
2019-03-26T06:50:23.336Z,8.36
2019-03-26T06:55:20.469Z,8.56
2019-03-26T07:00:28.053Z,8.64
2019-03-26T07:05:31.824Z,8.25
2019-03-26T07:10:29.720Z,7.91
2019-03-26T07:15:27.852Z,7.55
2019-03-26T07:20:24.926Z,7.46
2019-03-26T07:25:22.064Z,7.35
2019-03-26T07:30:36.997Z,7.24
2019-03-26T07:35:34.362Z,7.06
2019-03-26T07:40:31.519Z,7.07
2019-03-26T07:45:28.570Z,7.39
2019-03-26T07:50:25.923Z,7.63
2019-03-26T07:55:23.004Z,8.06
2019-03-26T08:00:35.535Z,8.42
2019-03-26T08:05:32.839Z,8.17
2019-03-26T08:10:31.413Z,7.76
2019-03-26T08:15:28.501Z,7.60
2019-03-26T08:20:25.618Z,7.61
2019-03-26T08:25:23.565Z,7.81
2019-03-26T08:30:20.827Z,7.90
2019-03-26T08:35:21.956Z,8.07
2019-03-26T08:40:19.803Z,7.99
2019-03-26T08:45:33.074Z,7.98
2019-03-26T08:50:17.654Z,7.89
2019-03-26T08:55:14.715Z,7.89
2019-03-26T09:00:12.345Z,7.90
2019-03-26T09:05:14.951Z,8.03
2019-03-26T09:10:12.919Z,7.46
2019-03-26T09:15:14.404Z,6.97
2019-03-26T09:20:11.364Z,7.59
2019-03-26T09:25:08.619Z,7.77
2019-03-26T09:30:10.689Z,7.92
2019-03-26T09:35:08.568Z,7.67
2019-03-26T09:40:07.579Z,7.99
2019-03-26T09:45:09.546Z,8.20
2019-03-26T09:50:11.109Z,8.16
2019-03-26T09:55:08.892Z,8.27
2019-03-26T10:00:16.732Z,8.57
2019-03-26T10:05:38.162Z,8.62
2019-03-26T10:10:45.739Z,8.77
2019-03-26T10:15:42.809Z,8.56
2019-03-26T10:20:40.073Z,8.33
2019-03-26T10:25:37.169Z,8.68
2019-03-26T10:30:39.396Z,8.85
2019-03-26T10:35:36.524Z,8.77
2019-03-26T10:40:37.175Z,8.61
2019-03-26T10:45:37.006Z,8.66
2019-03-26T10:50:34.099Z,8.74
2019-03-26T10:55:31.096Z,8.70
2019-03-26T11:00:34.932Z,9.07
2019-03-26T11:05:33.008Z,9.18
2019-03-26T11:10:30.192Z,8.83
2019-03-26T11:15:47.358Z,8.89
2019-03-26T11:20:46.599Z,8.82
2019-03-26T11:25:43.703Z,9.01
2019-03-26T11:30:42.386Z,9.37
2019-03-26T11:35:39.443Z,9.77
2019-03-26T11:40:36.589Z,10.25
2019-03-26T11:45:35.441Z,10.32
2019-03-26T11:50:33.040Z,9.84
2019-03-26T11:55:30.140Z,10.08
2019-03-26T12:00:40.220Z,10.12
2019-03-26T12:05:37.274Z,10.37
2019-03-26T12:10:34.483Z,10.53
2019-03-26T12:15:31.621Z,10.63
2019-03-26T12:20:28.751Z,10.35
2019-03-26T12:25:25.747Z,10.40
2019-03-26T12:30:32.369Z,10.03
2019-03-26T12:35:30.257Z,10.13
2019-03-26T12:40:29.429Z,10.30
2019-03-26T12:45:26.854Z,10.18
2019-03-26T12:50:27.078Z,9.88
2019-03-26T12:55:24.115Z,9.74
2019-03-26T13:00:32.202Z,10.34
2019-03-26T13:05:29.386Z,10.24
2019-03-26T13:10:26.466Z,10.14
2019-03-26T13:15:26.125Z,10.67
2019-03-26T13:20:23.193Z,10.61
2019-03-26T13:25:21.665Z,10.91
2019-03-26T13:30:20.439Z,11.39
2019-03-26T13:35:19.403Z,11.05
2019-03-26T13:40:27.105Z,10.78
2019-03-26T13:45:17.239Z,10.77
2019-03-26T13:50:14.935Z,10.50
2019-03-26T13:55:12.007Z,10.33
2019-03-26T14:00:09.980Z,10.09
2019-03-26T14:05:24.669Z,10.92
2019-03-26T14:10:21.905Z,11.20
2019-03-26T14:15:18.997Z,10.57
2019-03-26T14:20:19.275Z,10.28
2019-03-26T14:25:18.758Z,10.28
2019-03-26T14:30:38.367Z,10.26
2019-03-26T14:35:35.364Z,10.46
2019-03-26T14:40:34.721Z,10.06
2019-03-26T14:45:34.040Z,9.87
2019-03-26T14:50:31.166Z,9.66
2019-03-26T14:55:28.178Z,9.66
2019-03-26T15:00:25.865Z,9.43
2019-03-26T15:05:23.700Z,9.33
2019-03-26T15:10:23.430Z,9.33
2019-03-26T15:15:19.991Z,9.31
2019-03-26T15:20:17.018Z,9.25
2019-03-26T15:25:14.061Z,9.12
2019-03-26T15:30:11.556Z,9.05
2019-03-26T15:35:08.895Z,8.81
2019-03-26T15:40:08.360Z,8.89
2019-03-26T15:45:07.691Z,8.74
2019-03-26T15:50:06.086Z,8.88
2019-03-26T15:55:04.211Z,8.91
2019-03-26T16:00:01.467Z,8.66
2019-03-26T16:04:58.545Z,8.47
2019-03-26T16:09:55.580Z,8.50
2019-03-26T16:14:52.615Z,8.42
2019-03-26T16:19:49.692Z,8.21
2019-03-26T16:24:46.752Z,8.35
2019-03-26T16:29:43.777Z,8.46
2019-03-26T16:34:40.781Z,8.50
2019-03-26T16:39:37.896Z,8.44
2019-03-26T16:44:34.993Z,8.40
2019-03-26T16:49:32.262Z,8.52
2019-03-26T16:54:29.383Z,8.34
2019-03-26T16:59:26.465Z,8.51
2019-03-26T17:04:23.423Z,8.25
2019-03-26T17:09:20.522Z,8.37
2019-03-26T17:14:17.642Z,8.30
2019-03-26T17:19:15.036Z,8.49
2019-03-26T17:24:11.988Z,8.40
2019-03-26T17:29:09.069Z,8.48
2019-03-26T17:34:06.041Z,8.35
2019-03-26T17:39:07.820Z,8.44
2019-03-26T17:44:04.901Z,8.46
2019-03-26T17:49:01.885Z,8.33
2019-03-26T17:53:58.999Z,8.52
2019-03-26T17:58:56.416Z,7.91
2019-03-26T18:03:53.498Z,7.31
2019-03-26T18:08:50.595Z,6.83
2019-03-26T18:13:47.558Z,6.36
2019-03-26T18:18:44.651Z,5.81
2019-03-26T18:23:41.750Z,5.51
2019-03-26T18:28:38.934Z,5.50
2019-03-26T18:33:36.133Z,5.45
2019-03-26T18:38:33.412Z,5.25
2019-03-26T18:43:32.556Z,5.41
2019-03-26T18:48:33.484Z,5.26
2019-03-26T18:53:32.601Z,5.23
2019-03-26T18:58:30.118Z,5.57
2019-03-26T19:03:27.418Z,5.52
2019-03-26T19:08:24.722Z,5.73
2019-03-26T19:13:21.921Z,5.61
2019-03-26T19:18:19.053Z,5.66
2019-03-26T19:23:16.251Z,5.69
2019-03-26T19:28:13.333Z,5.67
2019-03-26T19:33:10.496Z,5.66
2019-03-26T19:38:08.413Z,5.63
2019-03-26T19:43:11.435Z,5.60
2019-03-26T19:48:04.352Z,5.52
2019-03-26T19:53:01.340Z,5.55
2019-03-26T19:57:58.447Z,5.55
2019-03-26T20:02:55.985Z,5.53
2019-03-26T20:07:53.009Z,5.47
2019-03-26T20:12:50.081Z,5.33
2019-03-26T20:17:47.149Z,5.38
2019-03-26T20:22:44.158Z,5.55
2019-03-26T20:27:41.229Z,5.33
2019-03-26T20:32:38.303Z,5.29
2019-03-26T20:37:35.640Z,5.36
2019-03-26T20:42:32.907Z,5.39
2019-03-26T20:47:30.006Z,5.26
2019-03-26T20:52:27.095Z,5.19
2019-03-26T20:57:25.753Z,5.11
2019-03-26T21:02:22.725Z,4.92
2019-03-26T21:07:20.656Z,4.89
2019-03-26T21:12:17.611Z,5.05
2019-03-26T21:17:14.809Z,4.73
2019-03-26T21:22:11.852Z,4.53
2019-03-26T21:27:08.844Z,4.39
2019-03-26T21:32:05.808Z,4.31
2019-03-26T21:37:03.322Z,4.17
2019-03-26T21:42:00.264Z,4.13
2019-03-26T21:46:57.249Z,4.16
2019-03-26T21:51:55.430Z,3.81
2019-03-26T21:56:53.604Z,3.96
2019-03-26T22:01:50.544Z,3.94
2019-03-26T22:06:47.539Z,3.96
2019-03-26T22:11:50.017Z,4.04
2019-03-26T22:16:45.178Z,4.02
2019-03-26T22:21:42.227Z,3.97
2019-03-26T22:26:39.256Z,4.08
2019-03-26T22:31:36.203Z,4.09
2019-03-26T22:36:33.238Z,3.94
2019-03-26T22:41:30.213Z,4.00
2019-03-26T22:46:27.223Z,3.99
2019-03-26T22:51:24.161Z,3.91
2019-03-26T22:56:21.191Z,4.07
2019-03-26T23:01:20.031Z,3.91
2019-03-26T23:06:17.028Z,3.95
2019-03-26T23:11:14.183Z,3.64
2019-03-26T23:16:12.787Z,3.71
2019-03-26T23:21:09.881Z,3.66
2019-03-26T23:26:06.881Z,3.71
2019-03-26T23:31:03.895Z,3.67
2019-03-26T23:36:00.887Z,3.62
2019-03-26T23:40:59.972Z,3.87
2019-03-26T23:45:56.793Z,3.79
2019-03-26T23:50:53.754Z,3.81
2019-03-26T23:55:50.750Z,3.64
